Time;durP1;ratioP1;P1;durP2;ratioP2;P2;SDS_P1;SDS_P2;PMS_P1;PMS_P2;Temp;Humidity;BMP_temperature;BMP_pressure;BME280_temperature;BME280_humidity;BME280_pressure;Samples;Min_cycle;Max_cycle;Signal;HPM_P1;HPM_P2
2023/02/24 00:00:30;;;;;;;;;40.60;33.00;;;;;12.53;61.42;100874.66;2078521;28;46778;-68
2023/02/24 00:01:36;;;;;;;;;47.60;39.20;;;;;12.53;61.47;100869.34;2068059;28;46956;-67
2023/02/24 00:02:36;;;;;;;;;42.60;34.40;;;;;12.54;61.29;100872.88;2064744;28;46946;-68
2023/02/24 00:03:43;;;;;;;;;46.00;37.75;;;;;12.54;61.44;100870.19;2070224;28;46908;-68
2023/02/24 00:04:44;;;;;;;;;43.20;35.80;;;;;12.54;61.44;100873.75;2069479;28;47203;-68
2023/02/24 00:05:48;;;;;;;;;45.50;37.25;;;;;12.55;61.25;100869.28;2070541;28;47119;-69
2023/02/24 00:06:49;;;;;;;;;43.20;36.00;;;;;12.53;61.34;100877.31;2062595;28;46361;-68
2023/02/24 00:07:49;;;;;;;;;44.75;35.00;;;;;12.52;61.45;100867.59;2062621;28;46242;-68
2023/02/24 00:08:49;;;;;;;;;45.75;37.00;;;;;12.53;61.35;100869.34;2061817;28;45658;-67
2023/02/24 00:09:50;;;;;;;;;48.00;38.00;;;;;12.54;61.24;100871.06;2062032;28;45981;-68
2023/02/24 00:10:51;;;;;;;;;44.00;37.75;;;;;12.52;61.27;100864.94;2062153;28;46880;-68
2023/02/24 00:12:01;;;;;;;;;48.60;38.40;;;;;12.51;61.31;100863.19;2061037;28;46401;-68
2023/02/24 00:13:01;;;;;;;;;50.40;40.00;;;;;12.50;61.17;100860.56;2062037;28;45616;-68
2023/02/24 00:14:08;;;;;;;;;48.50;39.75;;;;;12.45;61.00;100862.47;2057576;28;46682;-68
2023/02/24 00:15:13;;;;;;;;;45.40;36.60;;;;;12.44;61.36;100861.59;2062249;28;47379;-71
2023/02/24 00:16:16;;;;;;;;;43.80;37.60;;;;;12.45;61.53;100857.13;2061631;28;45957;-68
2023/02/24 00:17:16;;;;;;;;;48.80;35.40;;;;;12.45;61.36;100857.13;2072712;28;46615;-68
2023/02/24 00:18:19;;;;;;;;;46.25;39.25;;;;;12.45;61.19;100854.47;2070288;28;46368;-70
2023/02/24 00:19:22;;;;;;;;;49.20;40.40;;;;;12.44;61.48;100856.25;2061661;28;46650;-69
2023/02/24 00:20:23;;;;;;;;;47.40;37.00;;;;;12.44;61.40;100856.25;2061695;28;47108;-68
2023/02/24 00:21:24;;;;;;;;;48.20;38.40;;;;;12.43;61.34;100858.97;2061335;28;46443;-68
2023/02/24 00:22:24;;;;;;;;;50.75;41.75;;;;;12.42;61.55;100865.22;2061975;28;45877;-69
2023/02/24 00:23:25;;;;;;;;;51.00;37.00;;;;;12.41;61.37;100861.69;2070064;28;46737;-70
2023/02/24 00:24:25;;;;;;;;;51.25;40.75;;;;;12.41;61.53;100864.34;2070584;28;46346;-70
2023/02/24 00:25:26;;;;;;;;;51.00;40.25;;;;;12.42;61.54;100859.88;2063735;28;46770;-68
2023/02/24 00:26:28;;;;;;;;;49.25;40.75;;;;;12.41;61.53;100855.47;2070765;28;46482;-69
2023/02/24 00:27:29;;;;;;;;;47.20;39.80;;;;;12.40;61.43;100854.59;2062321;28;45867;-68
2023/02/24 00:28:29;;;;;;;;;47.25;38.75;;;;;12.39;61.51;100850.22;2063118;28;46837;-69
2023/02/24 00:29:31;;;;;;;;;49.25;39.00;;;;;12.38;61.52;100846.66;2063645;28;47093;-68
2023/02/24 00:30:31;;;;;;;;;49.00;40.60;;;;;12.38;61.60;100851.13;2063166;28;45475;-67
2023/02/24 00:31:32;;;;;;;;;47.25;39.00;;;;;12.38;61.81;100849.34;2070936;28;46381;-68
2023/02/24 00:32:34;;;;;;;;;50.25;40.25;;;;;12.38;61.68;100852.00;2072154;28;46433;-69
2023/02/24 00:33:36;;;;;;;;;50.40;41.40;;;;;12.40;61.65;100857.28;2079906;28;47134;-69
2023/02/24 00:34:36;;;;;;;;;52.40;41.60;;;;;12.41;61.49;100864.34;2078701;28;46230;-69
2023/02/24 00:35:36;;;;;;;;;55.00;43.25;;;;;12.42;61.59;100862.56;2073485;28;46649;-67
2023/02/24 00:36:38;;;;;;;;;52.75;41.50;;;;;12.41;61.56;100856.34;2079395;28;46716;-68
2023/02/24 00:37:38;;;;;;;;;50.40;40.40;;;;;12.42;61.55;100858.09;2076218;28;46392;-68
2023/02/24 00:38:43;;;;;;;;;46.25;38.75;;;;;12.43;61.67;100859.84;2086196;28;46668;-68
2023/02/24 00:39:44;;;;;;;;;48.20;38.80;;;;;12.42;61.73;100851.91;2081787;28;45711;-67
2023/02/24 00:40:44;;;;;;;;;44.75;38.25;;;;;12.44;61.79;100858.06;2078497;28;46255;-68
2023/02/24 00:41:44;;;;;;;;;49.75;40.75;;;;;12.44;61.63;100852.72;2080545;28;45393;-68
2023/02/24 00:42:47;;;;;;;;;49.75;39.75;;;;;12.43;61.68;100851.84;2081159;28;46440;-67
2023/02/24 00:43:49;;;;;;;;;49.80;40.80;;;;;12.44;61.46;100856.25;2080814;28;45993;-67
2023/02/24 00:44:52;;;;;;;;;56.00;43.40;;;;;12.45;61.73;100846.50;2080459;28;46576;-69
2023/02/24 00:45:53;;;;;;;;;49.60;38.80;;;;;12.45;61.53;100839.41;2080261;28;46738;-68
2023/02/24 00:46:53;;;;;;;;;48.00;40.00;;;;;12.45;61.67;100839.41;2080709;28;46290;-69
2023/02/24 00:47:56;;;;;;;;;50.25;41.00;;;;;12.46;61.64;100845.59;2080062;28;46771;-68
2023/02/24 00:48:56;;;;;;;;;52.00;42.00;;;;;12.47;61.49;100840.25;2080221;28;46345;-68
2023/02/24 00:49:56;;;;;;;;;55.25;44.25;;;;;12.47;61.66;100834.91;2080338;28;46589;-68
2023/02/24 00:50:59;;;;;;;;;41.75;35.25;;;;;12.47;61.58;100832.25;2080393;28;45568;-68
2023/02/24 00:52:03;;;;;;;;;48.80;38.20;;;;;12.47;61.72;100836.69;2096731;28;46591;-68
2023/02/24 00:53:05;;;;;;;;;51.40;42.40;;;;;12.48;61.51;100841.09;2090072;28;46491;-68
2023/02/24 00:54:06;;;;;;;;;52.20;42.00;;;;;12.47;61.71;100836.69;2073697;28;46364;-69
2023/02/24 00:55:12;;;;;;;;;52.00;41.20;;;;;12.47;61.53;100836.69;2097083;28;45431;-68
2023/02/24 00:56:14;;;;;;;;;51.00;40.80;;;;;12.47;61.63;100839.38;2095152;28;46979;-68
2023/02/24 00:57:20;;;;;;;;;49.20;39.20;;;;;12.47;61.58;100840.25;2075614;28;46882;-69
2023/02/24 00:58:20;;;;;;;;;46.20;38.00;;;;;12.46;61.53;100833.16;2080667;28;45730;-68
2023/02/24 00:59:22;;;;;;;;;54.50;43.00;;;;;12.46;61.51;100829.63;2097029;28;45687;-69
2023/02/24 01:00:23;;;;;;;;;50.60;40.20;;;;;12.46;61.54;100840.28;2095326;28;47037;-67
2023/02/24 01:01:30;;;;;;;;;46.50;37.50;;;;;12.45;61.67;100833.19;2080682;28;46167;-67
2023/02/24 01:02:31;;;;;;;;;47.20;40.00;;;;;12.44;61.64;100834.97;2080503;28;46653;-68
2023/02/24 01:03:31;;;;;;;;;51.25;40.25;;;;;12.44;61.62;100828.78;2086435;28;46458;-68
2023/02/24 01:04:32;;;;;;;;;49.75;39.75;;;;;12.43;61.58;100830.56;2079221;28;46213;-68
2023/02/24 01:05:35;;;;;;;;;50.60;42.20;;;;;12.43;61.57;100838.56;2075802;28;46519;-67
2023/02/24 01:06:39;;;;;;;;;43.00;36.20;;;;;12.43;61.72;100835.88;2074673;28;47066;-69
2023/02/24 01:07:39;;;;;;;;;46.80;39.20;;;;;12.43;61.56;100833.22;2079907;28;45736;-68
2023/02/24 01:08:46;;;;;;;;;48.25;38.25;;;;;12.41;61.59;100832.41;2080323;28;46908;-68
2023/02/24 01:09:49;;;;;;;;;52.40;42.60;;;;;12.41;61.54;100836.84;2079685;28;46843;-67
2023/02/24 01:13:37;;;;;;;;;52.80;41.60;;;;;12.41;61.38;100831.53;2079989;28;46627;-69
2023/02/24 01:14:38;;;;;;;;;49.00;39.75;;;;;12.40;61.63;100820.00;2079603;28;45642;-68
2023/02/24 01:15:38;;;;;;;;;50.00;39.60;;;;;12.39;61.83;100826.25;2075279;28;46578;-68
2023/02/24 01:16:40;;;;;;;;;47.00;40.25;;;;;12.38;61.70;100824.50;2086585;28;46108;-67
2023/02/24 01:17:40;;;;;;;;;48.80;39.80;;;;;12.38;61.58;100824.50;2087165;28;46904;-68
2023/02/24 01:18:41;;;;;;;;;48.75;39.75;;;;;12.37;61.73;100825.44;2087607;28;46494;-68
2023/02/24 01:19:43;;;;;;;;;53.75;42.50;;;;;12.36;61.64;100821.91;2087921;28;46874;-67
2023/02/24 01:20:43;;;;;;;;;47.40;39.40;;;;;12.36;61.61;100819.22;2087061;28;45749;-67
2023/02/24 01:21:44;;;;;;;;;50.75;40.25;;;;;12.36;61.67;100821.03;2087531;28;46582;-68
2023/02/24 01:22:49;;;;;;;;;50.80;40.60;;;;;12.35;61.84;100828.13;2087225;28;46082;-68
2023/02/24 01:23:49;;;;;;;;;53.20;43.00;;;;;12.35;61.56;100819.28;2083591;28;46834;-68
2023/02/24 01:24:50;;;;;;;;;46.00;38.50;;;;;12.33;61.58;100815.78;2087751;28;46658;-68
2023/02/24 01:25:52;;;;;;;;;49.75;40.00;;;;;12.33;61.69;100814.00;2087879;28;46822;-68
2023/02/24 01:26:52;;;;;;;;;46.20;38.40;;;;;12.34;61.89;100815.75;2087720;28;46398;-68
2023/02/24 01:27:52;;;;;;;;;51.00;42.75;;;;;12.35;61.85;100825.47;2090632;28;46351;-68
2023/02/24 01:28:54;;;;;;;;;50.75;40.50;;;;;12.36;61.84;100818.34;2087415;28;46821;-67
2023/02/24 01:29:54;;;;;;;;;47.80;40.20;;;;;12.36;61.65;100807.72;2087692;28;46672;-67
2023/02/24 01:31:00;;;;;;;;;48.00;37.25;;;;;12.36;61.74;100813.91;2087239;28;46749;-68
2023/02/24 01:32:01;;;;;;;;;49.80;42.00;;;;;12.36;61.79;100811.25;2087566;28;46399;-67
2023/02/24 01:33:02;;;;;;;;;49.25;40.50;;;;;12.36;61.72;100813.03;2086143;28;45317;-67
2023/02/24 01:34:04;;;;;;;;;46.75;39.00;;;;;12.36;61.83;100813.03;2087696;28;46697;-68
2023/02/24 01:35:05;;;;;;;;;53.20;42.20;;;;;12.36;61.57;100805.94;2088051;28;46742;-67
2023/02/24 01:36:13;;;;;;;;;50.00;38.25;;;;;12.37;61.76;100817.44;2086786;28;46838;-68
2023/02/24 01:37:15;;;;;;;;;51.00;42.20;;;;;12.36;61.69;100813.91;2086946;28;46630;-69
2023/02/24 01:38:21;;;;;;;;;54.00;40.60;;;;;12.37;61.70;100814.78;2087621;28;46672;-68
2023/02/24 01:39:22;;;;;;;;;50.60;41.60;;;;;12.37;61.71;100810.34;2086539;28;46363;-67
2023/02/24 01:40:25;;;;;;;;;50.75;39.75;;;;;12.37;61.60;100813.00;2080501;28;46075;-68
2023/02/24 01:41:26;;;;;;;;;53.20;43.00;;;;;12.37;61.44;100804.13;2087159;28;46549;-68
2023/02/24 01:42:27;;;;;;;;;48.60;40.40;;;;;12.36;61.54;100808.59;2087598;28;46301;-67
2023/02/24 01:43:27;;;;;;;;;44.00;37.25;;;;;12.35;61.45;100805.97;2087758;28;46269;-70
2023/02/24 01:44:28;;;;;;;;;52.75;43.50;;;;;12.33;61.52;100795.38;2087277;28;46586;-69
2023/02/24 01:45:28;;;;;;;;;46.75;40.25;;;;;12.34;61.64;100797.13;2087637;28;46472;-68
2023/02/24 01:46:34;;;;;;;;;47.00;39.25;;;;;12.33;61.59;100798.03;2087388;28;46352;-68
2023/02/24 01:47:34;;;;;;;;;53.60;43.00;;;;;12.32;61.56;100798.94;2087051;28;46757;-67
2023/02/24 01:48:35;;;;;;;;;48.50;39.25;;;;;12.32;61.45;100793.63;2082270;28;46900;-68
2023/02/24 01:49:41;;;;;;;;;46.25;39.50;;;;;12.31;61.48;100797.19;2080477;28;45786;-69
2023/02/24 01:50:41;;;;;;;;;49.40;39.80;;;;;12.32;61.44;100798.94;2080522;28;47112;-68
2023/02/24 01:51:48;;;;;;;;;39.50;33.50;;;;;12.31;61.42;100797.19;2080072;28;46340;-68
2023/02/24 01:52:51;;;;;;;;;45.40;37.40;;;;;12.30;61.68;100797.22;2080724;28;46377;-68
2023/02/24 01:53:53;;;;;;;;;47.80;41.20;;;;;12.29;61.41;100795.47;2080378;28;46635;-68
2023/02/24 01:54:59;;;;;;;;;43.60;36.40;;;;;12.28;61.54;100791.06;2080359;28;45276;-68
2023/02/24 01:55:59;;;;;;;;;49.00;39.00;;;;;12.27;61.35;100795.53;2078648;28;45808;-69
2023/02/24 01:57:04;;;;;;;;;48.25;39.00;;;;;12.27;61.47;100789.34;2072998;28;46681;-68
2023/02/24 01:58:14;;;;;;;;;51.80;41.00;;;;;12.27;61.38;100787.53;2074816;28;46499;-68
2023/02/24 01:59:14;;;;;;;;;45.20;37.60;;;;;12.27;61.38;100789.34;2089107;28;46496;-68
2023/02/24 02:02:03;;;;;;;;;51.40;41.20;;;;;12.29;61.50;100784.84;2046497;28;46620;-69
2023/02/24 02:03:09;;;;;;;;;50.60;40.00;;;;;12.28;61.54;100780.44;2051883;28;46378;-68
2023/02/24 02:04:25;;;;;;;;;48.60;37.80;;;;;12.27;61.56;100784.00;2053926;28;46728;-68
2023/02/24 02:05:25;;;;;;;;;46.40;38.80;;;;;12.25;61.68;100776.06;2054891;28;46476;-69
2023/02/24 02:06:26;;;;;;;;;50.25;40.75;;;;;12.25;61.51;100776.06;2050117;28;46519;-68
2023/02/24 02:07:28;;;;;;;;;48.25;39.25;;;;;12.26;61.53;100777.81;2048055;28;45585;-68
2023/02/24 02:08:29;;;;;;;;;51.80;39.60;;;;;12.25;61.60;100784.06;2048628;28;46615;-68
2023/02/24 02:09:30;;;;;;;;;0.00;0.00;;;;;12.25;61.58;100773.41;2051676;28;46329;-68
2023/02/24 02:10:32;;;;;;;;;48.60;40.20;;;;;12.24;61.47;100769.00;2054327;28;46785;-68
2023/02/24 02:11:33;;;;;;;;;47.60;40.00;;;;;12.22;61.59;100770.84;2054452;28;47128;-68
2023/02/24 02:12:36;;;;;;;;;49.25;40.00;;;;;12.22;61.67;100777.94;2054218;28;46620;-69
2023/02/24 02:13:42;;;;;;;;;49.80;39.60;;;;;12.20;61.68;100774.47;2054925;28;46534;-68
2023/02/24 02:14:51;;;;;;;;;45.00;38.00;;;;;12.19;61.82;100776.22;2053646;28;46354;-68
2023/02/24 02:16:24;;;;;;;;;49.00;38.40;;;;;12.18;61.75;100768.28;2052407;28;46857;-68
2023/02/24 02:17:45;;;;;;;;;47.60;40.00;;;;;12.17;61.81;100767.41;2049688;28;46827;-68
2023/02/24 02:19:07;;;;;;;;;49.80;41.00;;;;;12.15;61.97;100758.59;2047793;28;46463;-67
2023/02/24 02:20:54;;;;;;;;;53.20;41.20;;;;;12.16;61.98;100770.13;2054774;28;46944;-67
2023/02/24 02:22:02;;;;;;;;;44.20;38.40;;;;;12.16;62.10;100768.34;2030197;29;45353;-69
2023/02/24 02:23:12;;;;;;;;;49.60;40.20;;;;;12.16;62.08;100771.00;2030869;29;47877;-68
2023/02/24 02:24:15;;;;;;;;;54.40;43.00;;;;;12.17;62.13;100766.53;2029248;29;45973;-68
2023/02/24 02:25:24;;;;;;;;;49.80;41.00;;;;;12.16;62.14;100768.34;2030836;29;47034;-68
2023/02/24 02:26:56;;;;;;;;;50.80;40.80;;;;;12.15;62.07;100766.59;2027850;29;46625;-68
2023/02/24 02:28:10;;;;;;;;;50.60;40.80;;;;;12.16;62.30;100760.34;2030041;29;46665;-68
2023/02/24 02:29:16;;;;;;;;;51.60;40.00;;;;;12.16;62.26;100765.66;2030696;28;47035;-67
2023/02/24 02:30:38;;;;;;;;;48.40;39.80;;;;;12.17;62.16;100753.25;2030292;28;46428;-68
2023/02/24 02:32:09;;;;;;;;;51.40;42.40;;;;;12.16;62.31;100754.16;2030669;29;46953;-68
2023/02/24 02:33:26;;;;;;;;;49.20;40.60;;;;;12.15;62.46;100747.09;2025272;29;46774;-69
2023/02/24 02:34:52;;;;;;;;;54.40;42.40;;;;;12.15;62.43;100747.09;2024646;29;45893;-66
2023/02/24 02:36:00;;;;;;;;;53.20;43.40;;;;;12.13;62.55;100740.94;2030299;28;45234;-68
2023/02/24 02:37:33;;;;;;;;;52.60;41.00;;;;;12.11;62.71;100741.00;2058576;28;46314;-67
2023/02/24 02:38:43;;;;;;;;;53.00;42.20;;;;;12.12;62.67;100741.88;2039915;28;46857;-68
2023/02/24 02:39:57;;;;;;;;;54.20;43.20;;;;;12.11;62.66;100738.34;2046660;28;46155;-68
2023/02/24 02:41:16;;;;;;;;;49.40;40.20;;;;;12.10;62.78;100739.25;2045605;28;47037;-69
2023/02/24 02:42:26;;;;;;;;;52.80;41.20;;;;;12.07;62.83;100740.22;2047090;28;46701;-68
2023/02/24 02:43:41;;;;;;;;;49.60;41.00;;;;;12.07;62.94;100737.56;2041738;28;46701;-67
2023/02/24 02:44:54;;;;;;;;;51.00;41.40;;;;;12.06;62.94;100738.44;2046403;28;47309;-67
2023/02/24 02:46:04;;;;;;;;;55.80;45.60;;;;;12.04;62.99;100734.97;2046189;28;46792;-68
2023/02/24 02:47:28;;;;;;;;;51.00;41.40;;;;;12.04;63.12;100740.28;2054555;28;46592;-67
2023/02/24 02:48:47;;;;;;;;;53.60;41.60;;;;;12.05;63.14;100727.84;2050586;28;46781;-68
2023/02/24 02:49:54;;;;;;;;;54.40;43.60;;;;;12.04;63.24;100729.63;2046431;28;46826;-68
2023/02/24 02:51:08;;;;;;;;;55.00;44.00;;;;;12.04;63.31;100734.97;2046381;28;47000;-68
2023/02/24 02:52:16;;;;;;;;;52.20;43.20;;;;;12.03;63.15;100732.34;2046337;28;46192;-67
2023/02/24 02:53:48;;;;;;;;;48.80;41.60;;;;;12.01;63.24;100732.38;2046570;28;46014;-68
2023/02/24 02:54:57;;;;;;;;;55.40;45.20;;;;;12.00;63.28;100733.31;2046052;28;46597;-68
2023/02/24 02:56:10;;;;;;;;;53.20;44.00;;;;;12.00;63.29;100733.31;2046265;28;46729;-67
2023/02/24 02:57:16;;;;;;;;;53.40;43.60;;;;;12.00;63.23;100735.97;2045857;28;45817;-68
2023/02/24 02:58:25;;;;;;;;;52.60;43.40;;;;;12.00;63.55;100729.78;2046419;28;46329;-68
2023/02/24 02:59:29;;;;;;;;;53.20;42.40;;;;;12.00;63.36;100727.13;2061968;28;47036;-67
2023/02/24 03:00:36;;;;;;;;;53.80;43.20;;;;;11.99;63.64;100730.69;2062349;28;46620;-68
2023/02/24 03:01:42;;;;;;;;;0.00;0.00;;;;;11.99;63.56;100728.03;2062454;28;46378;-68
2023/02/24 03:02:49;;;;;;;;;53.00;43.60;;;;;12.00;63.60;100728.00;2061072;28;46566;-68
2023/02/24 03:03:56;;;;;;;;;55.40;43.80;;;;;12.01;63.68;100723.53;2062751;28;45650;-68
2023/02/24 03:05:01;;;;;;;;;50.60;42.20;;;;;12.01;63.58;100723.53;2060893;28;46238;-67
2023/02/24 03:06:06;;;;;;;;;51.40;43.40;;;;;12.01;63.61;100727.06;2057560;28;45957;-68
2023/02/24 03:07:11;;;;;;;;;46.00;38.80;;;;;12.01;63.53;100721.75;2061932;28;47084;-68
2023/02/24 03:08:17;;;;;;;;;55.60;44.20;;;;;12.01;63.52;100728.84;2062365;28;46560;-67
2023/02/24 03:09:25;;;;;;;;;51.40;42.80;;;;;12.00;63.79;100728.00;2059882;28;46288;-68
2023/02/24 03:10:27;;;;;;;;;55.60;45.60;;;;;12.00;63.78;100727.13;2061282;28;46177;-68
2023/02/24 03:11:31;;;;;;;;;50.20;39.60;;;;;11.99;63.63;100725.38;2062617;28;45771;-69
2023/02/24 03:12:32;;;;;;;;;49.40;40.00;;;;;11.97;63.62;100722.75;2061990;28;46854;-68
2023/02/24 03:13:38;;;;;;;;;55.40;44.60;;;;;11.99;63.75;100725.38;2062588;28;47056;-68
2023/02/24 03:14:45;;;;;;;;;55.40;44.40;;;;;11.97;63.66;100721.88;2062362;28;46570;-68
2023/02/24 03:15:46;;;;;;;;;56.00;43.80;;;;;11.97;63.58;100724.53;2062917;28;46717;-68
2023/02/24 03:16:49;;;;;;;;;51.00;41.20;;;;;11.97;63.80;100724.53;2074166;28;46305;-66
2023/02/24 03:17:57;;;;;;;;;53.20;42.80;;;;;11.97;63.66;100732.53;2079615;28;45689;-68
2023/02/24 03:19:03;;;;;;;;;47.40;40.00;;;;;11.97;63.72;100736.06;2079722;28;46666;-67
2023/02/24 03:20:22;;;;;;;;;51.60;42.00;;;;;11.97;63.65;100735.19;2079515;28;45961;-68
2023/02/24 03:21:31;;;;;;;;;53.60;43.40;;;;;11.95;63.82;100735.22;2073069;28;46655;-67
2023/02/24 03:22:49;;;;;;;;;50.00;39.80;;;;;11.95;63.75;100731.69;2079383;28;46411;-67
2023/02/24 03:23:50;;;;;;;;;48.80;40.00;;;;;11.94;63.67;100729.94;2078788;28;47810;-68
2023/02/24 03:24:51;;;;;;;;;52.60;43.00;;;;;11.94;63.75;100737.91;2079524;28;46762;-67
2023/02/24 03:26:15;;;;;;;;;51.80;42.60;;;;;11.93;63.77;100728.19;2074927;28;46580;-68
2023/02/24 03:27:27;;;;;;;;;53.80;44.80;;;;;11.93;63.75;100731.72;2076507;28;47096;-68
2023/02/24 03:28:36;;;;;;;;;52.20;41.60;;;;;11.94;63.97;100732.59;2078237;28;46838;-68
2023/02/24 03:29:44;;;;;;;;;55.40;43.20;;;;;11.94;63.73;100729.94;2079646;28;46283;-68
2023/02/24 03:30:57;;;;;;;;;52.60;42.40;;;;;11.93;63.89;100728.19;2073165;28;46949;-69
2023/02/24 03:32:05;;;;;;;;;51.20;41.40;;;;;11.93;63.79;100734.38;2079731;28;46856;-68
2023/02/24 03:33:15;;;;;;;;;53.40;41.40;;;;;11.94;63.98;100733.50;2077907;28;46727;-68
2023/02/24 03:34:32;;;;;;;;;54.20;44.20;;;;;11.93;64.07;100728.19;2079677;28;46969;-67
2023/02/24 03:35:37;;;;;;;;;50.00;41.00;;;;;11.94;63.86;100735.25;2073709;28;46322;-68
2023/02/24 03:36:38;;;;;;;;;44.40;37.20;;;;;11.94;63.96;100732.59;2073781;28;46465;-68
2023/02/24 03:37:38;;;;;;;;;51.00;41.50;;;;;11.95;63.93;100729.91;2079219;28;46407;-68
2023/02/24 03:38:41;;;;;;;;;47.50;39.00;;;;;11.95;63.85;100731.69;2080006;28;46416;-68
2023/02/24 03:39:42;;;;;;;;;52.60;43.20;;;;;11.94;63.75;100732.59;2073586;28;46816;-68
2023/02/24 03:40:42;;;;;;;;;52.75;41.75;;;;;11.92;63.76;100729.97;2079731;28;46948;-67
2023/02/24 03:42:03;;;;;;;;;48.50;39.50;;;;;11.92;63.84;100729.09;2077106;28;46721;-68
2023/02/24 03:43:10;;;;;;;;;48.40;39.40;;;;;11.92;63.87;100721.13;2093068;28;47039;-68
2023/02/24 03:44:11;;;;;;;;;45.00;36.80;;;;;11.92;63.95;100721.13;2089967;28;46353;-67
2023/02/24 03:45:11;;;;;;;;;52.00;37.50;;;;;11.90;63.75;100720.28;2084232;28;46386;-67
2023/02/24 03:46:14;;;;;;;;;50.00;41.50;;;;;11.90;63.82;100730.94;2086364;28;46417;-67
2023/02/24 03:47:18;;;;;;;;;47.80;39.80;;;;;11.88;63.92;100727.44;2078983;28;46620;-67
2023/02/24 03:48:19;;;;;;;;;50.80;40.40;;;;;11.88;63.99;100716.81;2084929;28;46603;-68
2023/02/24 03:49:19;;;;;;;;;49.25;38.75;;;;;11.88;64.10;100719.47;2081446;28;45703;-67
2023/02/24 03:50:21;;;;;;;;;51.75;43.00;;;;;11.88;64.01;100711.50;2079688;28;46214;-69
2023/02/24 03:51:26;;;;;;;;;49.80;40.80;;;;;11.88;63.83;100712.38;2078942;28;46751;-69
2023/02/24 03:52:46;;;;;;;;;52.60;42.20;;;;;11.90;64.09;100717.63;2075625;28;46694;-67
2023/02/24 03:54:01;;;;;;;;;47.80;37.80;;;;;11.91;64.08;100716.72;2074504;28;46241;-68
2023/02/24 03:55:32;;;;;;;;;50.40;41.60;;;;;11.89;63.81;100719.44;2086956;28;46977;-68
2023/02/24 03:56:39;;;;;;;;;51.40;42.60;;;;;11.89;64.40;100711.44;2072847;28;46702;-68
2023/02/24 03:57:55;;;;;;;;;54.60;42.00;;;;;11.89;64.04;100711.44;2071977;28;46967;-68
2023/02/24 03:59:17;;;;;;;;;49.20;40.20;;;;;11.89;63.90;100708.78;2079879;28;47018;-67
2023/02/24 04:00:33;;;;;;;;;55.20;43.20;;;;;11.88;63.83;100703.50;2075724;28;47052;-68
2023/02/24 04:01:46;;;;;;;;;42.20;35.80;;;;;11.89;63.81;100697.28;2098204;28;46588;-68
2023/02/24 04:03:05;;;;;;;;;51.00;42.00;;;;;11.87;63.88;100699.13;2092959;28;46581;-68
2023/02/24 04:04:11;;;;;;;;;53.20;42.40;;;;;11.87;63.96;100693.78;2089829;28;46108;-68
2023/02/24 04:05:19;;;;;;;;;52.00;43.20;;;;;11.87;63.92;100689.34;2089589;28;46148;-66
2023/02/24 04:06:25;;;;;;;;;50.40;42.20;;;;;11.88;64.01;100685.78;2078428;28;46823;-67
2023/02/24 04:07:37;;;;;;;;;52.80;43.80;;;;;11.88;63.63;100693.75;2082879;28;45360;-68
2023/02/24 04:08:59;;;;;;;;;50.60;41.60;;;;;11.87;63.98;100688.47;2074022;28;46173;-67
2023/02/24 04:10:03;;;;;;;;;45.60;37.60;;;;;11.87;63.90;100688.47;2073963;28;46552;-69
2023/02/24 04:11:15;;;;;;;;;53.60;44.00;;;;;11.86;63.89;100682.28;2078333;28;46957;-68
2023/02/24 04:12:37;;;;;;;;;45.80;38.80;;;;;11.86;63.83;100684.94;2081834;28;46273;-67
2023/02/24 04:13:50;;;;;;;;;46.20;38.40;;;;;11.85;64.02;100680.53;2081985;28;46365;-68
2023/02/24 04:14:53;;;;;;;;;51.00;42.40;;;;;11.85;64.03;100680.53;2082332;28;46440;-67
2023/02/24 04:16:01;;;;;;;;;46.20;38.40;;;;;11.85;64.01;100682.34;2076096;28;46498;-68
2023/02/24 04:17:12;;;;;;;;;49.60;40.40;;;;;11.86;63.89;100676.97;2080430;28;46674;-67
2023/02/24 04:18:17;;;;;;;;;51.20;42.40;;;;;11.85;63.99;100667.25;2086269;28;46374;-67
2023/02/24 04:19:21;;;;;;;;;48.00;40.20;;;;;11.86;63.80;100673.44;2091084;28;45113;-68
2023/02/24 04:20:28;;;;;;;;;47.40;40.00;;;;;11.85;63.84;100671.69;2088225;28;46483;-69
2023/02/24 04:21:31;;;;;;;;;49.80;40.80;;;;;11.84;63.94;100668.16;2081491;28;45966;-68
2023/02/24 04:22:31;;;;;;;;;49.80;41.20;;;;;11.85;64.13;100664.59;2080304;28;46047;-68
2023/02/24 04:23:39;;;;;;;;;52.00;41.25;;;;;11.84;64.14;100664.63;2081830;28;45801;-68
2023/02/24 04:24:43;;;;;;;;;52.40;43.60;;;;;11.83;63.90;100658.44;2081761;28;46566;-68
2023/02/24 04:25:47;;;;;;;;;49.40;42.40;;;;;11.84;64.17;100662.84;2082074;28;46849;-67
2023/02/24 04:26:50;;;;;;;;;51.20;41.80;;;;;11.85;63.94;100658.41;2079719;28;46571;-68
2023/02/24 04:28:00;;;;;;;;;49.80;42.60;;;;;11.84;63.98;100657.53;2081758;28;46460;-69
2023/02/24 04:29:01;;;;;;;;;50.80;39.40;;;;;11.86;63.99;100655.69;2081932;28;45088;-67
2023/02/24 04:30:03;;;;;;;;;57.00;46.20;;;;;11.86;63.98;100654.81;2082270;28;47066;-68
2023/02/24 04:31:09;;;;;;;;;50.80;41.20;;;;;11.86;63.95;100654.81;2074598;28;46214;-67
2023/02/24 04:32:11;;;;;;;;;54.00;43.60;;;;;11.85;63.79;100647.78;2080058;28;46739;-68
2023/02/24 04:33:11;;;;;;;;;50.00;41.20;;;;;11.85;64.05;100650.44;2076795;28;46539;-69
2023/02/24 04:34:18;;;;;;;;;52.25;42.25;;;;;11.85;64.04;100650.44;2081579;28;46261;-68
2023/02/24 04:35:21;;;;;;;;;52.40;42.00;;;;;11.85;63.90;100642.44;2081176;28;46629;-67
2023/02/24 04:36:21;;;;;;;;;54.00;42.80;;;;;11.85;63.85;100645.97;2082327;28;46493;-68
2023/02/24 04:37:21;;;;;;;;;51.25;41.00;;;;;11.84;63.88;100646.03;2079340;28;46544;-68
2023/02/24 04:38:22;;;;;;;;;50.00;42.00;;;;;11.84;63.90;100651.34;2079867;28;46419;-67
2023/02/24 04:39:22;;;;;;;;;47.25;39.75;;;;;11.83;63.81;100641.63;2081841;28;46599;-68
2023/02/24 04:40:23;;;;;;;;;53.00;43.75;;;;;11.83;63.97;100642.50;2105861;28;46158;-67
2023/02/24 04:41:23;;;;;;;;;50.00;39.50;;;;;11.83;63.91;100638.97;2098118;28;46249;-68
2023/02/24 04:42:24;;;;;;;;;49.25;39.25;;;;;11.84;63.93;100638.06;2082263;28;46535;-67
2023/02/24 04:43:24;;;;;;;;;43.50;37.50;;;;;11.84;63.94;100638.91;2079401;28;46515;-68
2023/02/24 04:44:26;;;;;;;;;52.00;42.50;;;;;11.84;63.78;100640.72;2081652;28;46475;-69
2023/02/24 04:45:29;;;;;;;;;52.00;42.20;;;;;11.84;63.69;100641.56;2081789;28;46524;-68
2023/02/24 04:46:31;;;;;;;;;46.80;40.00;;;;;11.83;63.90;100646.94;2082024;28;46920;-69
2023/02/24 04:47:31;;;;;;;;;52.00;42.40;;;;;11.82;63.76;100643.41;2081332;28;46607;-67
2023/02/24 04:48:32;;;;;;;;;54.25;42.50;;;;;11.81;63.71;100641.63;2082062;28;46243;-68
2023/02/24 04:49:32;;;;;;;;;53.25;40.50;;;;;11.81;63.91;100646.97;2082050;28;45535;-69
2023/02/24 04:50:35;;;;;;;;;53.75;42.50;;;;;11.80;63.51;100639.91;2081948;28;45832;-69
2023/02/24 04:51:37;;;;;;;;;44.80;37.80;;;;;11.81;63.65;100632.78;2081788;28;45593;-67
2023/02/24 04:52:38;;;;;;;;;49.60;41.60;;;;;11.81;63.74;100643.44;2081863;28;46876;-67
2023/02/24 04:53:38;;;;;;;;;49.75;40.50;;;;;11.81;63.93;100641.63;2082001;28;46129;-68
2023/02/24 04:54:38;;;;;;;;;50.50;43.00;;;;;11.80;63.67;100634.59;2081803;28;46850;-69
2023/02/24 04:55:42;;;;;;;;;49.25;40.75;;;;;11.80;63.87;100631.91;2081841;28;46633;-68
2023/02/24 04:56:43;;;;;;;;;50.40;42.60;;;;;11.79;63.48;100633.72;2081958;28;48065;-68
2023/02/24 04:57:44;;;;;;;;;49.60;41.00;;;;;11.78;63.81;100626.63;2083888;28;46634;-67
2023/02/24 04:58:45;;;;;;;;;50.40;39.60;;;;;11.78;63.62;100628.41;2090226;28;46273;-67
2023/02/24 04:59:45;;;;;;;;;45.75;38.50;;;;;11.76;63.59;100625.78;2082578;28;46876;-67
2023/02/24 05:00:51;;;;;;;;;50.25;38.00;;;;;11.76;63.61;100627.59;2081114;28;46839;-67
2023/02/24 05:01:52;;;;;;;;;48.60;39.00;;;;;11.75;63.80;100632.03;2076694;28;46506;-67
2023/02/24 05:02:54;;;;;;;;;49.75;40.00;;;;;11.74;63.81;100627.63;2081886;28;46095;-67